Aviation Digital Data Service (ADDS)

Output produced by METARs form (0641 UTC 24 March 2019)
found at http://www.aviationweather.gov/metar/data/
 
TAF SUCA 240530Z 2406/2506 32015KT 9999 FEW010 TX23/2418Z TN15/2409Z 
     PROB40 
     TEMPO 2409/2415 22015G25KT 7000 SHRA BKN013
       
TAF SUDU 240530Z 2406/2506 34008KT CAVOK TX24/2418Z TN13/2409Z 
     PROB30 
     TEMPO 2409/2415 23015KT 8000 SHRA SCT017
       
SUMU 240600Z 36007KT CAVOK 16/12 Q1011 NOSIG
TAF SUMU 240526Z 2406/2506 34012KT CAVOK TX22/2418Z TN15/2409Z 
     PROB40 
     TEMPO 2409/2415 23015G25KT 8000 SHRA BKN013 
     BECMG 2416/2420 24020KT
       
TAF SUAA 240530Z 2406/2506 34012KT CAVOK TX23/2418Z TN14/2409Z 
     PROB40 
     TEMPO 2409/2415 23015G25KT 8000 SHRA BKN015
       
SULS 240600Z 35006KT CAVOK 16/13 Q1012
TAF SULS 240530Z 2406/2506 34015KT CAVOK TX21/2418Z TN14/2409Z 
     PROB40 
     TEMPO 2409/2416 23018G28KT 6000 SHRA BKN012 
     BECMG 2416/2420 24025KT
       
TAF SURV 240530Z 2406/2506 33005KT CAVOK TX28/2418Z TN14/2409Z 
     TEMPO 2407/2410 2000 BR FEW010 
     BECMG 2411/2415 27015KT 9999 FEW020
       
TAF SUSO 240530Z 2406/2506 35005KT CAVOK TX28/2418Z TN15/2409Z 
     BECMG 2408/2412 29010KT 
     BECMG 2414/2418 21015KT 9999 FEW020